Bangor (BGR/KBGR)

Map

Destinations

Information

Location
Bangor, Maine
Local Time
09:14 / 9:14 am
GMT Time
14:14 / 2:14 pm
Gates
Unassigned
No FAA reported delays
METAR KBGR 221353Z 00000KT 10SM OVC040 00/M01 A2989 RMK AO2 SLP123 T00001011
TAF KBGR 221259Z 2213/2312 01004KT 6SM -SHSN SCT005 BKN035 FM221400 03007KT P6SM BKN035 FM230800 05007KT P6SM BKN025
  • No charts available